Flight Track Log - Related Links

Times and Time Zones

All times are in EDT time to prevent confusion due to time zone crossing. See the UAE380 flight status page for this flight to view local times or setup timezone preferences in your user account.

Time Position Orientation Groundspeed Altitude Reporting Facility
EDT Latitude Longitude Course Direction KTS MPH feet Rate Location/Type
Sun 02:31:32 AM 25.7758 58.9667 82° East  Level Estimated
Sun 02:32:32 AM 25.7937 59.1031 82° East  Level Estimated
Sun 02:33:32 AM 25.8115 59.2395 82° East  Level Estimated
Sun 02:34:32 AM 25.8291 59.3760 82° East  Level Estimated
Sun 02:35:32 AM 25.8466 59.5125 82° East  Level Estimated
Sun 02:36:32 AM 25.8640 59.6490 82° East  Level Estimated
Sun 02:37:32 AM 25.8813 59.7855 82° East  Level Estimated
Sun 02:38:32 AM 25.8984 59.9222 82° East  Level Estimated
Sun 02:39:32 AM 25.9154 60.0588 82° East  Level Estimated
Sun 02:40:32 AM 25.9323 60.1955 82° East  Level Estimated
Sun 02:41:32 AM 25.9490 60.3322 82° East  Level Estimated
Sun 02:42:32 AM 25.9656 60.4690 82° East  Level Estimated
Sun 02:43:32 AM 25.9821 60.6058 82° East  Level Estimated
Sun 02:44:32 AM 25.9985 60.7426 82° East  Level Estimated
Sun 02:45:32 AM 26.0147 60.8795 83° East  Level Estimated
Sun 02:46:32 AM 26.0308 61.0164 83° East  Level Estimated
Sun 02:47:32 AM 26.0468 61.1534 83° East  Level Estimated
Sun 02:48:32 AM 26.0626 61.2904 83° East  Level Estimated
Sun 02:49:32 AM 26.0783 61.4274 83° East  Level Estimated
Sun 02:50:32 AM 26.0939 61.5645 83° East  Level Estimated
Sun 02:51:32 AM 26.1094 61.7016 83° East  Level Estimated
Sun 02:52:32 AM 26.1247 61.8387 83° East  Level Estimated
Sun 02:53:32 AM 26.1399 61.9759 83° East  Level Estimated
Sun 02:54:32 AM 26.1550 62.1131 83° East  Level Estimated
Sun 02:55:32 AM 26.1699 62.2504 83° East  Level Estimated
Sun 02:56:32 AM 26.1847 62.3876 83° East  Level Estimated
Sun 02:57:32 AM 26.1994 62.5250 83° East  Level Estimated
Sun 02:58:32 AM 26.2140 62.6623 83° East  Level Estimated
Sun 02:59:32 AM 26.2284 62.7997 83° East  Level Estimated
Sun 03:00:32 AM 26.2427 62.9371 83° East  Level Estimated
Sun 03:01:32 AM 26.2568 63.0746 83° East  Level Estimated
Sun 03:02:32 AM 26.2708 63.2121 84° East  Level Estimated
Sun 03:03:32 AM 26.2847 63.3496 84° East  Level Estimated
Sun 03:04:32 AM 26.2985 63.4871 84° East  Level Estimated
Sun 03:05:32 AM 26.3121 63.6247 84° East  Level Estimated
Sun 03:06:32 AM 26.3256 63.7623 84° East  Level Estimated
Sun 03:07:32 AM 26.3390 63.9000 84° East  Level Estimated
Sun 03:08:32 AM 26.3522 64.0376 84° East  Level Estimated
Sun 03:09:32 AM 26.3653 64.1753 84° East  Level Estimated
Sun 03:10:32 AM 26.3783 64.3131 84° East  Level Estimated
Sun 03:11:32 AM 26.3911 64.4509 84° East  Level Estimated
Sun 03:12:32 AM 26.4038 64.5887 84° East  Level Estimated
Sun 03:13:32 AM 26.4164 64.7265 84° East  Level Estimated
Sun 03:14:32 AM 26.4289 64.8643 84° East  Level Estimated
Sun 03:15:32 AM 26.4412 65.0022 84° East  Level Estimated
Sun 03:16:32 AM 26.4534 65.1402 84° East  Level Estimated
Sun 03:17:32 AM 26.4654 65.2781 84° East  Level Estimated
Sun 03:18:32 AM 26.4773 65.4161 85° East  Level Estimated
Sun 03:19:32 AM 26.4891 65.5541 85° East  Level Estimated
Sun 03:20:32 AM 26.5007 65.6921 85° East  Level Estimated
Sun 03:21:32 AM 26.5123 65.8302 85° East  Level Estimated
Sun 03:22:32 AM 26.5236 65.9683 85° East  Level Estimated
Sun 03:23:32 AM 26.5349 66.1064 85° East  Level Estimated
Sun 03:24:32 AM 26.5460 66.2446 85° East  Level Estimated
Sun 03:25:32 AM 26.5570 66.3827 85° East  Level Estimated
Sun 03:26:32 AM 26.5679 66.5209 85° East  Level Estimated
Sun 03:27:32 AM 26.5786 66.6591 85° East  Level Estimated
Sun 03:28:32 AM 26.5891 66.7974 85° East  Level Estimated
Sun 03:29:32 AM 26.5996 66.9357 85° East  Level Estimated
Sun 03:30:32 AM 26.6099 67.0740 85° East  Level Estimated
Sun 03:31:32 AM 26.6201 67.2123 85° East  Level Estimated
Sun 03:32:32 AM 26.6301 67.3506 85° East  Level Estimated
Sun 03:33:32 AM 26.6401 67.4890 85° East  Level Estimated
Sun 03:34:32 AM 26.6499 67.6274 86° East  Level Estimated
Sun 03:35:32 AM 26.6595 67.7658 86° East  Level Estimated
Sun 03:36:32 AM 26.6690 67.9043 86° East  Level Estimated
Sun 03:37:32 AM 26.6784 68.0427 86° East  Level Estimated
Sun 03:38:32 AM 26.6876 68.1812 86° East  Level Estimated
Sun 03:39:32 AM 26.6968 68.3197 86° East  Level Estimated
Sun 03:40:32 AM 26.7057 68.4583 86° East  Level Estimated
Sun 03:41:32 AM 26.7146 68.5968 86° East  Level Estimated
Sun 03:42:32 AM 26.7233 68.7354 86° East  Level Estimated
Sun 03:43:32 AM 26.7318 68.8740 86° East  Level Estimated
Sun 03:44:32 AM 26.7403 69.0126 86° East  Level Estimated
Sun 03:45:32 AM 26.7486 69.1513 86° East  Level Estimated
Sun 03:46:32 AM 26.7568 69.2899 86° East  Level Estimated
Sun 03:47:32 AM 26.7648 69.4286 86° East  Level Estimated
Sun 03:48:32 AM 26.7727 69.5673 86° East  Level Estimated
Sun 03:49:32 AM 26.7805 69.7060 86° East  Level Estimated
Sun 03:50:32 AM 26.7881 69.8448 87° East  Level Estimated
Sun 03:51:32 AM 26.7956 69.9835 87° East  Level Estimated
Sun 03:52:32 AM 26.8029 70.1223 87° East  Level Estimated
Sun 03:53:32 AM 26.8102 70.2611 87° East  Level Estimated
Sun 03:54:32 AM 26.8172 70.3999 87° East  Level Estimated
Sun 03:55:32 AM 26.8242 70.5387 87° East  Level Estimated
Sun 03:56:32 AM 26.8310 70.6776 87° East  Level Estimated
Sun 03:57:32 AM 26.8377 70.8165 87° East  Level Estimated
Sun 03:58:32 AM 26.8442 70.9553 87° East  Level Estimated
Sun 03:59:32 AM 26.8507 71.0942 87° East  Level Estimated
Sun 04:00:32 AM 26.8569 71.2331 87° East  Level Estimated
Sun 04:01:32 AM 26.8631 71.3720 87° East  Level Estimated
Sun 04:02:32 AM 26.8691 71.5110 87° East  Level Estimated
Sun 04:03:32 AM 26.8749 71.6499 87° East  Level Estimated
Sun 04:04:32 AM 26.8807 71.7889 87° East  Level Estimated
Sun 04:05:32 AM 26.8862 71.9279 87° East  Level Estimated
Sun 04:06:32 AM 26.8917 72.0669 88° East  Level Estimated
Sun 04:07:32 AM 26.8970 72.2059 88° East  Level Estimated
Sun 04:08:32 AM 26.9022 72.3449 88° East  Level Estimated
Sun 04:09:32 AM 26.9073 72.4839 88° East  Level Estimated
Sun 04:10:32 AM 26.9122 72.6230 88° East  Level Estimated
Sun 04:11:32 AM 26.9170 72.7620 88° East  Level Estimated
Sun 04:12:32 AM 26.9216 72.9011 88° East  Level Estimated
Sun 04:13:32 AM 26.9261 73.0402 88° East  Level Estimated
Sun 04:14:32 AM 26.9305 73.1793 88° East  Level Estimated
Sun 04:15:32 AM 26.9347 73.3184 88° East  Level Estimated
Sun 04:16:32 AM 26.9388 73.4575 88° East  Level Estimated
Sun 04:17:32 AM 26.9428 73.5966 88° East  Level Estimated
Sun 04:18:32 AM 26.9466 73.7357 88° East  Level Estimated
Sun 04:19:32 AM 26.9503 73.8749 88° East  Level Estimated
Sun 04:20:32 AM 26.9538 74.0140 88° East  Level Estimated
Sun 04:21:32 AM 26.9572 74.1532 88° East  Level Estimated
Sun 04:22:32 AM 26.9605 74.2924 89° East  Level Estimated
Sun 04:23:32 AM 26.9637 74.4315 89° East  Level Estimated
Sun 04:24:32 AM 26.9667 74.5707 89° East  Level Estimated
Sun 04:25:32 AM 26.9695 74.7099 89° East  Level Estimated
Sun 04:26:32 AM 26.9723 74.8491 89° East  Level Estimated
Sun 04:27:32 AM 26.9748 74.9883 89° East  Level Estimated
Sun 04:28:32 AM 26.9773 75.1275 89° East  Level Estimated
Sun 04:29:32 AM 26.9796 75.2667 89° East  Level Estimated
Sun 04:30:32 AM 26.9818 75.4059 89° East  Level Estimated
Sun 04:31:32 AM 26.9839 75.5452 89° East  Level Estimated
Sun 04:32:32 AM 26.9858 75.6844 89° East  Level Estimated
Sun 04:33:32 AM 26.9875 75.8236 89° East  Level Estimated
Sun 04:34:32 AM 26.9892 75.9629 89° East  Level Estimated
Sun 04:35:32 AM 26.9907 76.1021 89° East  Level Estimated
Sun 04:36:32 AM 26.9920 76.2413 89° East  Level Estimated
Sun 04:37:32 AM 26.9933 76.3806 89° East  Level Estimated
Sun 04:38:32 AM 26.9944 76.5199 90° East  Level Estimated
Sun 04:39:32 AM 26.9953 76.6591 90° East  Level Estimated
Sun 04:40:32 AM 26.9961 76.7984 90° East  Level Estimated
Sun 04:41:32 AM 26.9968 76.9376 90° East  Level Estimated
Sun 04:42:32 AM 26.9974 77.0769 90° East  Level Estimated
Sun 04:43:32 AM 26.9978 77.2161 90° East  Level Estimated
Sun 04:44:32 AM 26.9980 77.3554 90° East  Level Estimated
Sun 04:45:32 AM 26.9982 77.4947 90° East  Level Estimated
Sun 04:46:32 AM 26.9981 77.6339 90° East  Level Estimated
Sun 04:47:32 AM 26.9980 77.7732 90° East  Level Estimated
Sun 04:48:32 AM 26.9977 77.9125 90° East  Level Estimated
Sun 04:49:32 AM 26.9973 78.0517 90° East  Level Estimated
Sun 04:50:32 AM 26.9968 78.1910 90° East  Level Estimated
Sun 04:51:32 AM 26.9961 78.3302 90° East  Level Estimated
Sun 04:52:32 AM 26.9952 78.4695 90° East  Level Estimated
Sun 04:53:32 AM 26.9943 78.6087 90° East  Level Estimated
Sun 04:54:32 AM 26.9932 78.7480 91° East  Level Estimated
Sun 04:55:32 AM 26.9919 78.8873 91° East  Level Estimated
Sun 04:56:32 AM 26.9906 79.0265 91° East  Level Estimated
Sun 04:57:32 AM 26.9890 79.1657 91° East  Level Estimated
Sun 04:58:32 AM 26.9874 79.3050 91° East  Level Estimated
Sun 04:59:32 AM 26.9856 79.4442 91° East  Level Estimated
Sun 05:00:32 AM 26.9837 79.5834 91° East  Level Estimated
Sun 05:01:32 AM 26.9816 79.7227 91° East  Level Estimated
Sun 05:02:32 AM 26.9794 79.8619 91° East  Level Estimated
Sun 05:03:32 AM 26.9771 80.0011 91° East  Level Estimated
Sun 05:04:32 AM 26.9746 80.1403 91° East  Level Estimated
Sun 05:05:32 AM 26.9720 80.2795 91° East  Level Estimated
Sun 05:06:32 AM 26.9693 80.4187 91° East  Level Estimated
Sun 05:07:32 AM 26.9664 80.5579 91° East  Level Estimated
Sun 05:08:32 AM 26.9634 80.6971 91° East  Level Estimated
Sun 05:09:32 AM 26.9602 80.8363 91° East  Level Estimated
Sun 05:10:32 AM 26.9569 80.9754 92° East  Level Estimated
Sun 05:11:32 AM 26.9535 81.1146 92° East  Level Estimated
Sun 05:12:32 AM 26.9499 81.2537 92° East  Level Estimated
Sun 05:13:32 AM 26.9463 81.3929 92° East  Level Estimated
Sun 05:14:32 AM 26.9424 81.5320 92° East  Level Estimated
Sun 05:15:32 AM 26.9384 81.6711 92° East  Level Estimated
Sun 05:16:32 AM 26.9343 81.8102 92° East  Level Estimated
Sun 05:17:32 AM 26.9301 81.9493 92° East  Level Estimated
Sun 05:18:32 AM 26.9257 82.0884 92° East  Level Estimated
Sun 05:19:32 AM 26.9212 82.2275 92° East  Level Estimated
Sun 05:20:32 AM 26.9165 82.3666 92° East  Level Estimated
Sun 05:21:32 AM 26.9118 82.5056 92° East  Level Estimated
Sun 05:22:32 AM 26.9068 82.6447 92° East  Level Estimated
Sun 05:23:32 AM 26.9018 82.7837 92° East  Level Estimated
Sun 05:24:32 AM 26.8966 82.9227 92° East  Level Estimated
Sun 05:25:32 AM 26.8912 83.0617 92° East  Level Estimated
Sun 05:26:32 AM 26.8858 83.2007 93° East  Level Estimated
Sun 05:27:32 AM 26.8801 83.3397 93° East  Level Estimated
Sun 05:28:32 AM 26.8744 83.4787 93° East  Level Estimated
Sun 05:29:32 AM 26.8685 83.6176 93° East  Level Estimated
Sun 05:30:32 AM 26.8625 83.7565 93° East  Level Estimated
Sun 05:31:32 AM 26.8564 83.8955 93° East  Level Estimated
Sun 05:32:32 AM 26.8501 84.0344 93° East  Level Estimated
Sun 05:33:32 AM 26.8437 84.1733 93° East  Level Estimated
Sun 05:34:32 AM 26.8371 84.3121 93° East  Level Estimated
Sun 05:35:32 AM 26.8304 84.4510 93° East  Level Estimated
Sun 05:36:32 AM 26.8236 84.5898 93° East  Level Estimated
Sun 05:37:32 AM 26.8166 84.7287 93° East  Level Estimated
Sun 05:38:32 AM 26.8095 84.8675 93° East  Level Estimated
Sun 05:39:32 AM 26.8023 85.0063 93° East  Level Estimated
Sun 05:40:32 AM 26.7949 85.1450 93° East  Level Estimated
Sun 05:41:32 AM 26.7874 85.2838 93° East  Level Estimated
Sun 05:42:32 AM 26.7798 85.4225 94° East  Level Estimated
Sun 05:43:32 AM 26.7720 85.5612 94° East  Level Estimated
Sun 05:44:32 AM 26.7641 85.7000 94° East  Level Estimated
Sun 05:45:32 AM 26.7560 85.8386 94° East  Level Estimated
Sun 05:46:32 AM 26.7479 85.9773 94° East  Level Estimated
Sun 05:47:32 AM 26.7395 86.1159 94° East  Level Estimated
Sun 05:48:32 AM 26.7311 86.2545 94° East  Level Estimated
Sun 05:49:32 AM 26.7225 86.3931 94° East  Level Estimated
Sun 05:50:32 AM 26.7138 86.5317 94° East  Level Estimated
Sun 05:51:32 AM 26.7050 86.6703 94° East  Level Estimated
Sun 05:52:32 AM 26.6960 86.8088 94° East  Level Estimated
Sun 05:53:32 AM 26.6868 86.9473 94° East  Level Estimated
Sun 05:54:32 AM 26.6776 87.0858 94° East  Level Estimated
Sun 05:55:32 AM 26.6682 87.2243 94° East  Level Estimated
Sun 05:56:32 AM 26.6587 87.3627 94° East  Level Estimated
Sun 05:57:32 AM 26.6490 87.5011 94° East  Level Estimated
Sun 05:58:32 AM 26.6392 87.6395 95° East  Level Estimated
Sun 05:59:32 AM 26.6293 87.7779 95° East  Level Estimated
Sun 06:00:32 AM 26.6192 87.9163 95° East  Level Estimated
Sun 06:01:32 AM 26.6090 88.0546 95° East  Level Estimated
Sun 06:02:32 AM 26.5987 88.1929 95° East  Level Estimated
Sun 06:03:32 AM 26.5882 88.3311 95° East  Level Estimated
Sun 06:04:32 AM 26.5776 88.4694 95° East  Level Estimated
Sun 06:05:32 AM 26.5669 88.6076 95° East  Level Estimated
Sun 06:06:32 AM 26.5560 88.7458 95° East  Level Estimated
Sun 06:07:32 AM 26.5450 88.8840 95° East  Level Estimated
Sun 06:08:32 AM 26.5339 89.0221 95° East  Level Estimated
Sun 06:09:32 AM 26.5227 89.1602 95° East  Level Estimated
Sun 06:10:32 AM 26.5113 89.2983 95° East  Level Estimated
Sun 06:11:32 AM 26.4997 89.4364 95° East  Level Estimated
Sun 06:12:32 AM 26.4881 89.5744 95° East  Level Estimated
Sun 06:13:32 AM 26.4763 89.7124 95° East  Level Estimated
Sun 06:14:32 AM 26.4643 89.8504 96° East  Level Estimated
Sun 06:15:32 AM 26.4523 89.9883 96° East  Level Estimated
Sun 06:16:32 AM 26.4401 90.1263 96° East  Level Estimated
Sun 06:17:32 AM 26.4278 90.2642 96° East  Level Estimated
Sun 06:18:32 AM 26.4153 90.4020 96° East  Level Estimated
Sun 06:19:32 AM 26.4027 90.5398 96° East  Level Estimated
Sun 06:20:32 AM 26.3900 90.6776 96° East  Level Estimated
Sun 06:21:32 AM 26.3772 90.8154 96° East  Level Estimated
Sun 06:22:32 AM 26.3642 90.9531 96° East  Level Estimated
Sun 06:23:32 AM 26.3511 91.0909 96° East  Level Estimated
Sun 06:24:32 AM 26.3378 91.2285 96° East  Level Estimated
Sun 06:25:32 AM 26.3244 91.3662 96° East  Level Estimated
Sun 06:26:32 AM 26.3109 91.5038 96° East  Level Estimated
Sun 06:27:32 AM 26.2973 91.6414 96° East  Level Estimated
Sun 06:28:32 AM 26.2835 91.7789 96° East  Level Estimated
Sun 06:29:32 AM 26.2696 91.9164 96° East  Level Estimated
Sun 06:30:32 AM 26.2556 92.0539 97° East  Level Estimated
Sun 06:31:32 AM 26.2414 92.1914 97° East  Level Estimated
Sun 06:32:32 AM 26.2271 92.3288 97° East  Level Estimated
Sun 06:33:32 AM 26.2127 92.4662 97° East  Level Estimated
Sun 06:34:32 AM 26.1981 92.6035 97° East  Level Estimated
Sun 06:35:32 AM 26.1834 92.7408 97° East  Level Estimated
Sun 06:36:32 AM 26.1686 92.8781 97° East  Level Estimated
Sun 06:37:32 AM 26.1537 93.0153 97° East  Level Estimated
Sun 06:38:32 AM 26.1386 93.1525 97° East  Level Estimated
Sun 06:39:32 AM 26.1234 93.2897 97° East  Level Estimated
Sun 06:40:32 AM 26.1080 93.4268 97° East  Level Estimated
Sun 06:41:32 AM 26.0926 93.5639 97° East  Level Estimated
Sun 06:42:32 AM 26.0770 93.7010 97° East  Level Estimated
Sun 06:43:32 AM 26.0612 93.8380 97° East  Level Estimated
Sun 06:44:32 AM 26.0454 93.9750 97° East  Level Estimated
Sun 06:45:32 AM 26.0294 94.1120 97° East  Level Estimated
Sun 06:46:32 AM 26.0133 94.2489 97° East  Level Estimated
Sun 06:47:32 AM 25.9970 94.3858 98° East  Level Estimated
Sun 06:48:32 AM 25.9807 94.5226 98° East  Level Estimated
Sun 06:49:32 AM 25.9642 94.6594 98° East  Level Estimated
Sun 06:50:32 AM 25.9475 94.7962 98° East  Level Estimated
Sun 06:51:32 AM 25.9308 94.9329 98° East  Level Estimated
Sun 06:52:32 AM 25.9139 95.0696 98° East  Level Estimated
Sun 06:53:32 AM 25.8969 95.2062 98° East  Level Estimated
Sun 06:54:32 AM 25.8797 95.3428 98° East  Level Estimated
Sun 06:55:32 AM 25.8625 95.4794 98° East  Level Estimated
Sun 06:56:32 AM 25.8451 95.6159 98° East  Level Estimated
Sun 06:57:32 AM 25.8276 95.7524 98° East  Level Estimated
Sun 06:58:32 AM 25.8099 95.8889 98° East  Level Estimated
Sun 06:59:32 AM 25.7921 96.0253 98° East  Level Estimated
Sun 07:00:32 AM 25.7742 96.1616 98° East  Level Estimated
Sun 07:01:32 AM 25.7562 96.2980 98° East  Level Estimated
Sun 07:02:32 AM 25.7380 96.4342 98° East  Level Estimated
Sun 07:03:32 AM 25.7197 96.5705 99° East  Level Estimated
Sun 07:04:32 AM 25.7013 96.7067 99° East  Level Estimated
Sun 07:05:32 AM 25.6828 96.8428 99° East  Level Estimated
Sun 07:06:32 AM 25.6641 96.9789 99° East  Level Estimated
Sun 07:07:32 AM 25.6453 97.1150 99° East  Level Estimated
Sun 07:08:32 AM 25.6264 97.2510 99° East  Level Estimated
Sun 07:09:32 AM 25.6074 97.3870 99° East  Level Estimated
Sun 07:10:32 AM 25.5882 97.5230 99° East  Level Estimated
Sun 07:11:32 AM 25.5689 97.6589 99° East  Level Estimated
Sun 07:12:32 AM 25.5495 97.7947 99° East  Level Estimated
Sun 07:13:32 AM 25.5299 97.9305 99° East  Level Estimated
Sun 07:14:32 AM 25.5103 98.0663 99° East  Level Estimated
Sun 07:15:32 AM 25.4904 98.2020 99° East  Level Estimated
Sun 07:16:32 AM 25.4705 98.3377 99° East  Level Estimated
Sun 07:17:32 AM 25.4505 98.4733 99° East  Level Estimated
Sun 07:18:32 AM 25.4303 98.6089 99° East  Level Estimated
Sun 07:19:32 AM 25.4100 98.7444 99° East  Level Estimated
Sun 07:20:32 AM 25.3896 98.8799 99° East  Level Estimated
Sun 07:21:32 AM 25.3690 99.0153 100° East  Level Estimated
Sun 07:22:32 AM 25.3484 99.1507 100° East  Level Estimated
Sun 07:23:32 AM 25.3276 99.2861 100° East  Level Estimated
Sun 07:24:32 AM 25.3067 99.4214 100° East  Level Estimated
Sun 07:25:32 AM 25.2856 99.5567 100° East  Level Estimated
Sun 07:26:32 AM 25.2645 99.6919 100° East  Level Estimated
Sun 07:27:32 AM 25.2432 99.8270 100° East  Level Estimated
Sun 07:28:32 AM 25.2218 99.9622 100° East  Level Estimated
Sun 07:29:32 AM 25.2003 100.0972 100° East  Level Estimated
Sun 07:30:32 AM 25.1786 100.2323 100° East  Level Estimated
Sun 07:31:32 AM 25.1568 100.3672 100° East  Level Estimated
Sun 07:32:32 AM 25.1349 100.5022 100° East  Level Estimated
Sun 07:33:32 AM 25.1129 100.6370 100° East  Level Estimated
Sun 07:34:32 AM 25.0908 100.7719 100° East  Level Estimated
Sun 07:35:32 AM 25.0685 100.9066 100° East  Level Estimated
Sun 07:36:32 AM 25.0461 101.0414 100° East  Level Estimated
Sun 07:37:32 AM 25.0236 101.1761 100° East  Level Estimated
Sun 07:38:32 AM 25.0010 101.3107 101° East  Level Estimated
Sun 07:39:32 AM 24.9782 101.4453 101° East  Level Estimated
Sun 07:40:32 AM 24.9554 101.5798 101° East  Level Estimated
Sun 07:41:32 AM 24.9324 101.7143 101° East  Level Estimated
Sun 07:42:32 AM 24.9093 101.8487 101° East  Level Estimated
Sun 07:43:32 AM 24.8860 101.9831 101° East  Level Estimated
Sun 07:44:32 AM 24.8627 102.1174 101° East  Level Estimated
Sun 07:45:32 AM 24.8392 102.2517 101° East  Level Estimated
Sun 07:46:32 AM 24.8156 102.3859 101° East  Level Estimated
Sun 07:47:32 AM 24.7919 102.5201 101° East  Level Estimated
Sun 07:48:32 AM 24.7681 102.6543 101° East  Level Estimated
Sun 07:49:32 AM 24.7441 102.7883 101° East  Level Estimated
Sun 07:50:32 AM 24.7201 102.9223 101° East  Level Estimated
Sun 07:51:32 AM 24.6959 103.0563 101° East  Level Estimated
Sun 07:52:32 AM 24.6716 103.1902 101° East  Level Estimated
Sun 07:53:32 AM 24.6471 103.3241 101° East  Level Estimated
Sun 07:54:32 AM 24.6226 103.4579 101° East  Level Estimated
Sun 07:55:32 AM 24.5979 103.5917 101° East  Level Estimated
Sun 07:56:32 AM 24.5731 103.7254 102° East  Level Estimated
Sun 07:57:32 AM 24.5482 103.8591 102° East  Level Estimated
Sun 07:58:32 AM 24.5232 103.9927 102° East  Level Estimated
Sun 07:59:32 AM 24.4981 104.1262 102° East  Level Estimated
Sun 08:00:32 AM 24.4728 104.2597 102° East  Level Estimated
Sun 08:01:32 AM 24.4475 104.3932 102° East  Level Estimated
Sun 08:02:32 AM 24.4220 104.5265 102° East  Level Estimated
Sun 08:03:32 AM 24.3964 104.6599 102° East  Level Estimated
Sun 08:04:32 AM 24.3706 104.7932 102° East  Level Estimated
Sun 08:05:32 AM 24.3448 104.9264 102° East  Level Estimated
Sun 08:06:32 AM 24.3189 105.0596 102° East  Level Estimated
Sun 08:07:32 AM 24.2928 105.1927 102° East  Level Estimated
Sun 08:08:32 AM 24.2666 105.3257 102° East  Level Estimated
Sun 08:09:32 AM 24.2403 105.4587 102° East  Level Estimated
Sun 08:10:32 AM 24.2139 105.5917 102° East  Level Estimated
Sun 08:11:32 AM 24.1873 105.7246 102° East  Level Estimated
Sun 08:12:32 AM 24.1607 105.8574 102° East  Level Estimated
Sun 08:13:32 AM 24.1339 105.9902 102° East  Level Estimated
Sun 08:14:32 AM 24.1071 106.1229 103° East  Level Estimated
Sun 08:15:32 AM 24.0801 106.2556 103° East  Level Estimated
Sun 08:16:32 AM 24.0530 106.3882 103° East  Level Estimated
Sun 08:17:32 AM 24.0257 106.5208 103° East  Level Estimated
Sun 08:18:32 AM 23.9984 106.6533 103° East  Level Estimated
Sun 08:19:32 AM 23.9710 106.7858 103° East  Level Estimated
Sun 08:20:32 AM 23.9434 106.9181 103° East  Level Estimated
Sun 08:21:32 AM 23.9157 107.0505 103° East  Level Estimated
Sun 08:22:32 AM 23.8879 107.1827 103° East  Level Estimated
Sun 08:23:32 AM 23.8600 107.3150 103° East  Level Estimated
Sun 08:24:32 AM 23.8320 107.4471 103° East  Level Estimated
Sun 08:25:32 AM 23.8039 107.5792 103° East  Level Estimated
Sun 08:26:32 AM 23.7757 107.7113 103° East  Level Estimated
Sun 08:27:32 AM 23.7473 107.8433 103° East  Level Estimated
Sun 08:28:32 AM 23.7188 107.9752 103° East  Level Estimated
Sun 08:29:32 AM 23.6903 108.1071 103° East  Level Estimated
Sun 08:30:32 AM 23.6616 108.2389 103° East  Level Estimated
Sun 08:31:32 AM 23.6328 108.3707 103° East  Level Estimated
Sun 08:32:32 AM 23.6039 108.5024 103° East  Level Estimated
Sun 08:33:32 AM 23.5748 108.6340 104° East  Level Estimated
Sun 08:34:32 AM 23.5457 108.7656 104° East  Level Estimated
Sun 08:35:32 AM 23.5165 108.8972 104° East  Level Estimated
Sun 08:36:32 AM 23.4871 109.0286 104° East  Level Estimated
Sun 08:37:32 AM 23.4577 109.1600 104° East  Level Estimated
Sun 08:38:32 AM 23.4281 109.2914 104° East  Level Estimated
Sun 08:39:32 AM 23.3984 109.4227 104° East  Level Estimated
Sun 08:40:32 AM 23.3686 109.5539 104° East  Level Estimated
Sun 08:41:32 AM 23.3387 109.6851 104° East  Level Estimated
Sun 08:42:32 AM 23.3087 109.8162 104° East  Level Estimated
Sun 08:43:32 AM 23.2786 109.9473 104° East  Level Estimated
Sun 08:44:32 AM 23.2484 110.0783 104° East  Level Estimated
Sun 08:45:32 AM 23.2180 110.2092 104° East  Level Estimated
Sun 08:46:32 AM 23.1876 110.3401 104° East  Level Estimated
Sun 08:47:32 AM 23.1570 110.4709 104° East  Level Estimated
Sun 08:48:32 AM 23.1264 110.6017 104° East  Level Estimated
Sun 08:49:32 AM 23.0956 110.7324 104° East  Level Estimated
Sun 08:50:32 AM 23.0647 110.8630 104° East  Level Estimated
Sun 08:51:32 AM 23.0337 110.9936 104° East  Level Estimated
Sun 08:52:32 AM 23.0026 111.1241 105° East  Level Estimated
Sun 08:53:32 AM 22.9714 111.2546 105° East  Level Estimated
Sun 08:54:32 AM 22.9401 111.3850 105° East  Level Estimated
Sun 08:55:32 AM 22.9087 111.5153 105° East  Level Estimated
Sun 08:56:32 AM 22.8772 111.6456 105° East  Level Estimated
Sun 08:57:32 AM 22.8456 111.7758 105° East  Level Estimated
Sun 08:58:32 AM 22.8139 111.9060 105° East  Level Estimated
Sun 08:59:32 AM 22.7820 112.0361 105° East  Level Estimated
Sun 09:00:32 AM 22.7501 112.1661 105° East  Level Estimated
Sun 09:01:32 AM 22.7180 112.2961 105° East  Level Estimated
Sun 09:02:32 AM 22.6859 112.4260 105° East  Level Estimated
Sun 09:03:32 AM 22.6536 112.5559 105° East  Level Estimated
Sun 09:04:32 AM 22.6213 112.6857 105° East  Level Estimated
Sun 09:05:32 AM 22.5888 112.8154 105° East  Level Estimated
Sun 09:06:32 AM 22.5562 112.9451 105° East  Level Estimated
Sun 09:07:32 AM 22.5236 113.0747 105° East  Level Estimated
Sun 09:08:32 AM 22.4908 113.2042 105° East  Level Estimated
Sun 09:09:32 AM 22.4579 113.3337 105° East  Level Estimated
Sun 09:10:32 AM 22.4249 113.4631 105° East  Level Estimated
Sun 09:11:32 AM 22.3918 113.5925 105° East  Level Estimated
Sun 09:12:32 AM 22.3586 113.7218 106° East  Level Estimated
Sun 09:13:32 AM 22.3253 113.8510 106° East  Level Estimated
Sun 09:14:32 AM 22.2920 113.9802 286° West  Level Estimated
Sun 09:15:32 AM 22.3253 113.8510 106° East  Level Estimated
Sun 09:16:32 AM 22.2911 113.9833 286° West  Level Estimated
Sun 09:17:32 AM 22.3253 113.8510 106° East  Level Estimated
Sun 09:18:32 AM 22.2911 113.9833 286° West  Level Estimated
Sun 09:19:32 AM 22.3253 113.8510 286° West  Level Estimated

Login

Don't have an account? Register now (free) for customized features, flight alerts, and more!